<?xml version='1.0' encoding='UTF-8'?><gpx version="1.1" creator="JPX - https://github.com/jenetics/jpx" xmlns="http://www.topografix.com/GPX/1/1"><trk><trkseg><trkpt lat="45.6890237" lon="9.5678318"><ele>233.0</ele><time>2026-03-23T20:05:48.464Z</time></trkpt><trkpt lat="45.6890946" lon="9.5678357"><ele>233.0</ele><time>2026-03-23T20:05:53.388Z</time></trkpt><trkpt lat="45.6891436" lon="9.5677504"><ele>233.0</ele><time>2026-03-23T20:05:58.238Z</time></trkpt><trkpt lat="45.6892125" lon="9.5677544"><ele>233.0</ele><time>2026-03-23T20:06:02.241Z</time></trkpt><trkpt lat="45.6892754" lon="9.5677344"><ele>233.0</ele><time>2026-03-23T20:06:07.585Z</time></trkpt><trkpt lat="45.6893362" lon="9.5677708"><ele>233.0</ele><time>2026-03-23T20:06:17.595Z</time></trkpt><trkpt lat="45.6893823" lon="9.5678372"><ele>233.0</ele><time>2026-03-23T20:06:30.586Z</time></trkpt><trkpt lat="45.6894499" lon="9.5678658"><ele>233.33333333333334</ele><time>2026-03-23T20:06:34.562Z</time></trkpt><trkpt lat="45.6895203" lon="9.5678768"><ele>233.66666666666669</ele><time>2026-03-23T20:06:39.461Z</time></trkpt><trkpt lat="45.6896066" lon="9.5678792"><ele>234.0</ele><time>2026-03-23T20:06:45.405Z</time></trkpt><trkpt lat="45.6896778" lon="9.5678844"><ele>234.33333333333331</ele><time>2026-03-23T20:06:50.485Z</time></trkpt><trkpt lat="45.6897482" lon="9.5678867"><ele>234.66666666666666</ele><time>2026-03-23T20:06:55.537Z</time></trkpt><trkpt lat="45.6898314" lon="9.5679057"><ele>235.0</ele><time>2026-03-23T20:07:00.536Z</time></trkpt><trkpt lat="45.6899061" lon="9.5679189"><ele>235.0</ele><time>2026-03-23T20:07:06.598Z</time></trkpt><trkpt lat="45.6899809" lon="9.5679253"><ele>234.99999999999997</ele><time>2026-03-23T20:07:11.594Z</time></trkpt><trkpt lat="45.6900459" lon="9.5679448"><ele>235.0</ele><time>2026-03-23T20:07:15.589Z</time></trkpt><trkpt lat="45.6901115" lon="9.5679656"><ele>235.0</ele><time>2026-03-23T20:07:20.557Z</time></trkpt><trkpt lat="45.6901766" lon="9.5679878"><ele>234.99999999999997</ele><time>2026-03-23T20:07:24.603Z</time></trkpt><trkpt lat="45.6902504" lon="9.5680238"><ele>235.0</ele><time>2026-03-23T20:07:29.591Z</time></trkpt><trkpt lat="45.6903173" lon="9.5680138"><ele>235.0</ele><time>2026-03-23T20:07:35.591Z</time></trkpt><trkpt lat="45.6903839" lon="9.5679881"><ele>235.14285714285714</ele><time>2026-03-23T20:07:40.562Z</time></trkpt><trkpt lat="45.6904472" lon="9.5679605"><ele>235.28571428571428</ele><time>2026-03-23T20:07:44.462Z</time></trkpt><trkpt lat="45.6905153" lon="9.5679392"><ele>235.42857142857142</ele><time>2026-03-23T20:07:49.282Z</time></trkpt><trkpt lat="45.6905754" lon="9.5679101"><ele>235.57142857142856</ele><time>2026-03-23T20:07:53.179Z</time></trkpt><trkpt lat="45.6906399" lon="9.5678826"><ele>235.71428571428572</ele><time>2026-03-23T20:07:58.083Z</time></trkpt><trkpt lat="45.6907135" lon="9.5678545"><ele>235.85714285714283</ele><time>2026-03-23T20:08:03Z</time></trkpt><trkpt lat="45.6907808" lon="9.5678255"><ele>236.0</ele><time>2026-03-23T20:08:08.097Z</time></trkpt><trkpt lat="45.6908442" lon="9.5677995"><ele>236.0</ele><time>2026-03-23T20:08:13.163Z</time></trkpt><trkpt lat="45.6909133" lon="9.5677708"><ele>236.0</ele><time>2026-03-23T20:08:18.219Z</time></trkpt><trkpt lat="45.6909813" lon="9.5677603"><ele>236.0</ele><time>2026-03-23T20:08:23.198Z</time></trkpt><trkpt lat="45.6910528" lon="9.5677392"><ele>236.0</ele><time>2026-03-23T20:08:28.246Z</time></trkpt><trkpt lat="45.6911164" lon="9.5677279"><ele>236.0</ele><time>2026-03-23T20:08:33.225Z</time></trkpt><trkpt lat="45.6911914" lon="9.5677128"><ele>236.0</ele><time>2026-03-23T20:08:38.284Z</time></trkpt><trkpt lat="45.6912622" lon="9.5676859"><ele>236.0</ele><time>2026-03-23T20:08:43.415Z</time></trkpt><trkpt lat="45.6913227" lon="9.5676541"><ele>236.28571428571428</ele><time>2026-03-23T20:08:48.443Z</time></trkpt><trkpt lat="45.691391" lon="9.5676102"><ele>236.57142857142858</ele><time>2026-03-23T20:08:53.5Z</time></trkpt><trkpt lat="45.6914591" lon="9.5675802"><ele>236.85714285714286</ele><time>2026-03-23T20:08:58.537Z</time></trkpt><trkpt lat="45.6915241" lon="9.5675531"><ele>237.14285714285714</ele><time>2026-03-23T20:09:03.564Z</time></trkpt><trkpt lat="45.69159" lon="9.5675101"><ele>237.42857142857144</ele><time>2026-03-23T20:09:08.595Z</time></trkpt><trkpt lat="45.6916492" lon="9.5674793"><ele>237.71428571428572</ele><time>2026-03-23T20:09:12.588Z</time></trkpt><trkpt lat="45.6917102" lon="9.5674512"><ele>238.0</ele><time>2026-03-23T20:09:16.596Z</time></trkpt><trkpt lat="45.691765" lon="9.5673805"><ele>238.0</ele><time>2026-03-23T20:09:21.595Z</time></trkpt><trkpt lat="45.6917548" lon="9.567276"><ele>238.0</ele><time>2026-03-23T20:09:26.593Z</time></trkpt><trkpt lat="45.6917458" lon="9.5671712"><ele>238.0</ele><time>2026-03-23T20:09:32.602Z</time></trkpt><trkpt lat="45.6917293" lon="9.5670836"><ele>238.0</ele><time>2026-03-23T20:09:37.59Z</time></trkpt><trkpt lat="45.6917094" lon="9.5669858"><ele>238.0</ele><time>2026-03-23T20:09:42.587Z</time></trkpt><trkpt lat="45.6916928" lon="9.5668923"><ele>238.0</ele><time>2026-03-23T20:09:47.592Z</time></trkpt><trkpt lat="45.6916761" lon="9.5668036"><ele>238.0</ele><time>2026-03-23T20:09:53.586Z</time></trkpt><trkpt lat="45.6916623" lon="9.566696"><ele>237.57142857142856</ele><time>2026-03-23T20:09:59.596Z</time></trkpt><trkpt lat="45.6916403" lon="9.5666004"><ele>237.14285714285714</ele><time>2026-03-23T20:10:04.593Z</time></trkpt><trkpt lat="45.691617" lon="9.5665157"><ele>236.71428571428572</ele><time>2026-03-23T20:10:09.588Z</time></trkpt><trkpt lat="45.6915935" lon="9.5664153"><ele>236.28571428571428</ele><time>2026-03-23T20:10:15.5Z</time></trkpt><trkpt lat="45.6915726" lon="9.566323"><ele>235.85714285714283</ele><time>2026-03-23T20:10:20.589Z</time></trkpt><trkpt lat="45.6915438" lon="9.5662421"><ele>235.42857142857142</ele><time>2026-03-23T20:10:24.588Z</time></trkpt><trkpt lat="45.6915291" lon="9.5661395"><ele>235.0</ele><time>2026-03-23T20:10:29.482Z</time></trkpt><trkpt lat="45.6915226" lon="9.5660334"><ele>235.0</ele><time>2026-03-23T20:10:34.59Z</time></trkpt><trkpt lat="45.6915115" lon="9.5659364"><ele>234.99999999999997</ele><time>2026-03-23T20:10:39.595Z</time></trkpt><trkpt lat="45.6915051" lon="9.565845"><ele>235.0</ele><time>2026-03-23T20:10:44.589Z</time></trkpt><trkpt lat="45.6914953" lon="9.5657472"><ele>235.0</ele><time>2026-03-23T20:10:49.586Z</time></trkpt><trkpt lat="45.6914808" lon="9.5656517"><ele>234.99999999999997</ele><time>2026-03-23T20:10:53.584Z</time></trkpt><trkpt lat="45.6914442" lon="9.5655674"><ele>235.0</ele><time>2026-03-23T20:10:59.561Z</time></trkpt><trkpt lat="45.691374" lon="9.5655446"><ele>235.0</ele><time>2026-03-23T20:11:04.593Z</time></trkpt><trkpt lat="45.6913352" lon="9.5654679"><ele>235.0</ele><time>2026-03-23T20:11:11.591Z</time></trkpt><trkpt lat="45.6913555" lon="9.5653762"><ele>234.99999999999997</ele><time>2026-03-23T20:11:28.585Z</time></trkpt><trkpt lat="45.6913967" lon="9.5654581"><ele>235.0</ele><time>2026-03-23T20:11:33.586Z</time></trkpt><trkpt lat="45.6914396" lon="9.565542"><ele>235.0</ele><time>2026-03-23T20:11:37.59Z</time></trkpt><trkpt lat="45.6914837" lon="9.5654743"><ele>234.99999999999997</ele><time>2026-03-23T20:11:45.587Z</time></trkpt><trkpt lat="45.691495" lon="9.5653785"><ele>235.0</ele><time>2026-03-23T20:11:50.584Z</time></trkpt><trkpt lat="45.6915191" lon="9.5652938"><ele>235.0</ele><time>2026-03-23T20:11:55.588Z</time></trkpt><trkpt lat="45.6915126" lon="9.5651958"><ele>235.14285714285714</ele><time>2026-03-23T20:12:00.598Z</time></trkpt><trkpt lat="45.6915002" lon="9.565095"><ele>235.28571428571428</ele><time>2026-03-23T20:12:05.588Z</time></trkpt><trkpt lat="45.6914878" lon="9.5650024"><ele>235.42857142857142</ele><time>2026-03-23T20:12:09.594Z</time></trkpt><trkpt lat="45.6914779" lon="9.5649056"><ele>235.57142857142856</ele><time>2026-03-23T20:12:14.595Z</time></trkpt><trkpt lat="45.6914663" lon="9.5648063"><ele>235.71428571428572</ele><time>2026-03-23T20:12:20.587Z</time></trkpt><trkpt lat="45.6914467" lon="9.5647125"><ele>235.85714285714283</ele><time>2026-03-23T20:12:25.589Z</time></trkpt><trkpt lat="45.6914242" lon="9.564626"><ele>236.0</ele><time>2026-03-23T20:12:29.542Z</time></trkpt><trkpt lat="45.6914012" lon="9.5645411"><ele>235.85714285714283</ele><time>2026-03-23T20:12:34.588Z</time></trkpt><trkpt lat="45.6913813" lon="9.5644361"><ele>235.71428571428572</ele><time>2026-03-23T20:12:39.597Z</time></trkpt><trkpt lat="45.691365" lon="9.5643255"><ele>235.57142857142856</ele><time>2026-03-23T20:12:45.587Z</time></trkpt><trkpt lat="45.6913593" lon="9.5642246"><ele>235.42857142857142</ele><time>2026-03-23T20:12:50.586Z</time></trkpt><trkpt lat="45.6913459" lon="9.5641348"><ele>235.28571428571428</ele><time>2026-03-23T20:12:55.588Z</time></trkpt><trkpt lat="45.6913226" lon="9.5640459"><ele>235.14285714285714</ele><time>2026-03-23T20:13:01.589Z</time></trkpt><trkpt lat="45.6913027" lon="9.5639413"><ele>235.0</ele><time>2026-03-23T20:13:07.482Z</time></trkpt><trkpt lat="45.6912863" lon="9.5638529"><ele>235.0</ele><time>2026-03-23T20:13:11.516Z</time></trkpt><trkpt lat="45.6912647" lon="9.5637624"><ele>234.99999999999997</ele><time>2026-03-23T20:13:16.588Z</time></trkpt><trkpt lat="45.6912387" lon="9.5636769"><ele>235.0</ele><time>2026-03-23T20:13:21.546Z</time></trkpt><trkpt lat="45.6912236" lon="9.5635736"><ele>235.0</ele><time>2026-03-23T20:13:26.599Z</time></trkpt><trkpt lat="45.6912076" lon="9.5634841"><ele>234.99999999999997</ele><time>2026-03-23T20:13:31.592Z</time></trkpt><trkpt lat="45.6911909" lon="9.5633946"><ele>235.0</ele><time>2026-03-23T20:13:36.585Z</time></trkpt><trkpt lat="45.6911768" lon="9.5633032"><ele>235.0</ele><time>2026-03-23T20:13:41.589Z</time></trkpt><trkpt lat="45.6911555" lon="9.5632065"><ele>235.0</ele><time>2026-03-23T20:13:46.587Z</time></trkpt><trkpt lat="45.6911395" lon="9.5631137"><ele>234.99999999999997</ele><time>2026-03-23T20:13:51.587Z</time></trkpt><trkpt lat="45.6911264" lon="9.5630205"><ele>235.0</ele><time>2026-03-23T20:13:56.541Z</time></trkpt><trkpt lat="45.6911088" lon="9.5629182"><ele>235.0</ele><time>2026-03-23T20:14:01.559Z</time></trkpt><trkpt lat="45.6911044" lon="9.5628162"><ele>234.99999999999997</ele><time>2026-03-23T20:14:06.59Z</time></trkpt><trkpt lat="45.6910863" lon="9.5627175"><ele>235.0</ele><time>2026-03-23T20:14:11.586Z</time></trkpt><trkpt lat="45.6910698" lon="9.5626061"><ele>235.0</ele><time>2026-03-23T20:14:17.593Z</time></trkpt><trkpt lat="45.6910648" lon="9.5625135"><ele>235.14285714285714</ele><time>2026-03-23T20:14:22.587Z</time></trkpt><trkpt lat="45.6910459" lon="9.5624117"><ele>235.28571428571428</ele><time>2026-03-23T20:14:27.588Z</time></trkpt><trkpt lat="45.6910185" lon="9.562302"><ele>235.42857142857142</ele><time>2026-03-23T20:14:32.588Z</time></trkpt><trkpt lat="45.6910107" lon="9.5622101"><ele>235.57142857142856</ele><time>2026-03-23T20:14:37.504Z</time></trkpt><trkpt lat="45.6910177" lon="9.5621044"><ele>235.71428571428572</ele><time>2026-03-23T20:14:43.584Z</time></trkpt><trkpt lat="45.691007" lon="9.5620015"><ele>235.85714285714283</ele><time>2026-03-23T20:14:48.584Z</time></trkpt><trkpt lat="45.6909727" lon="9.5619109"><ele>236.0</ele><time>2026-03-23T20:14:53.585Z</time></trkpt><trkpt lat="45.6909597" lon="9.5618209"><ele>236.0</ele><time>2026-03-23T20:14:58.586Z</time></trkpt><trkpt lat="45.6909475" lon="9.5617259"><ele>236.0</ele><time>2026-03-23T20:15:03.59Z</time></trkpt><trkpt lat="45.6909369" lon="9.5616304"><ele>236.0</ele><time>2026-03-23T20:15:07.59Z</time></trkpt><trkpt lat="45.6909213" lon="9.561539"><ele>236.0</ele><time>2026-03-23T20:15:12.585Z</time></trkpt><trkpt lat="45.6909113" lon="9.5614386"><ele>236.0</ele><time>2026-03-23T20:15:17.591Z</time></trkpt><trkpt lat="45.6909016" lon="9.5613493"><ele>236.0</ele><time>2026-03-23T20:15:22.499Z</time></trkpt><trkpt lat="45.6908797" lon="9.5612603"><ele>236.0</ele><time>2026-03-23T20:15:27.587Z</time></trkpt><trkpt lat="45.6908729" lon="9.5611587"><ele>236.14285714285714</ele><time>2026-03-23T20:15:32.592Z</time></trkpt><trkpt lat="45.6908717" lon="9.5610623"><ele>236.28571428571428</ele><time>2026-03-23T20:15:37.588Z</time></trkpt><trkpt lat="45.6908446" lon="9.560979"><ele>236.42857142857142</ele><time>2026-03-23T20:15:42.489Z</time></trkpt><trkpt lat="45.6908454" lon="9.5608867"><ele>236.57142857142856</ele><time>2026-03-23T20:15:47.601Z</time></trkpt><trkpt lat="45.6908403" lon="9.5607917"><ele>236.71428571428572</ele><time>2026-03-23T20:15:52.52Z</time></trkpt><trkpt lat="45.690804" lon="9.5606984"><ele>236.85714285714283</ele><time>2026-03-23T20:15:57.588Z</time></trkpt><trkpt lat="45.6907804" lon="9.5605952"><ele>236.99999999999997</ele><time>2026-03-23T20:16:02.587Z</time></trkpt><trkpt lat="45.6907628" lon="9.5604934"><ele>236.99999999999997</ele><time>2026-03-23T20:16:07.594Z</time></trkpt><trkpt lat="45.6907508" lon="9.5603958"><ele>237.0</ele><time>2026-03-23T20:16:12.594Z</time></trkpt><trkpt lat="45.6907163" lon="9.5602963"><ele>236.99999999999997</ele><time>2026-03-23T20:16:18.589Z</time></trkpt><trkpt lat="45.690713" lon="9.5601792"><ele>236.99999999999997</ele><time>2026-03-23T20:16:24.576Z</time></trkpt><trkpt lat="45.6907049" lon="9.5600816"><ele>237.0</ele><time>2026-03-23T20:16:29.589Z</time></trkpt><trkpt lat="45.690688" lon="9.5599857"><ele>236.99999999999997</ele><time>2026-03-23T20:16:34.587Z</time></trkpt><trkpt lat="45.6906718" lon="9.5598882"><ele>236.99999999999997</ele><time>2026-03-23T20:16:39.59Z</time></trkpt><trkpt lat="45.690658" lon="9.5597912"><ele>237.1428571428571</ele><time>2026-03-23T20:16:44.588Z</time></trkpt><trkpt lat="45.6906365" lon="9.5597028"><ele>237.28571428571428</ele><time>2026-03-23T20:16:49.594Z</time></trkpt><trkpt lat="45.6906246" lon="9.5596051"><ele>237.42857142857142</ele><time>2026-03-23T20:16:54.596Z</time></trkpt><trkpt lat="45.6906129" lon="9.5595019"><ele>237.57142857142856</ele><time>2026-03-23T20:16:59.593Z</time></trkpt><trkpt lat="45.6906005" lon="9.5594012"><ele>237.71428571428572</ele><time>2026-03-23T20:17:04.59Z</time></trkpt><trkpt lat="45.6905919" lon="9.5592998"><ele>237.85714285714286</ele><time>2026-03-23T20:17:09.59Z</time></trkpt><trkpt lat="45.6905696" lon="9.5592077"><ele>238.0</ele><time>2026-03-23T20:17:14.589Z</time></trkpt><trkpt lat="45.6906146" lon="9.559137"><ele>238.14285714285714</ele><time>2026-03-23T20:17:20.584Z</time></trkpt><trkpt lat="45.690683" lon="9.5591171"><ele>238.28571428571428</ele><time>2026-03-23T20:17:25.585Z</time></trkpt><trkpt lat="45.6907456" lon="9.5590791"><ele>238.42857142857144</ele><time>2026-03-23T20:17:30.587Z</time></trkpt><trkpt lat="45.6908079" lon="9.5590352"><ele>238.57142857142858</ele><time>2026-03-23T20:17:35.538Z</time></trkpt><trkpt lat="45.6908751" lon="9.5590045"><ele>238.71428571428572</ele><time>2026-03-23T20:17:40.496Z</time></trkpt><trkpt lat="45.6909426" lon="9.5589641"><ele>238.8571428571429</ele><time>2026-03-23T20:17:45.585Z</time></trkpt><trkpt lat="45.6910064" lon="9.5589217"><ele>239.00000000000003</ele><time>2026-03-23T20:17:50.583Z</time></trkpt><trkpt lat="45.6910703" lon="9.5588897"><ele>239.00000000000003</ele><time>2026-03-23T20:17:54.585Z</time></trkpt><trkpt lat="45.6911421" lon="9.5588919"><ele>239.0</ele><time>2026-03-23T20:18:00.595Z</time></trkpt><trkpt lat="45.6912084" lon="9.5588623"><ele>239.00000000000003</ele><time>2026-03-23T20:18:05.59Z</time></trkpt><trkpt lat="45.6912765" lon="9.5588587"><ele>239.00000000000003</ele><time>2026-03-23T20:18:10.559Z</time></trkpt><trkpt lat="45.6913433" lon="9.5588548"><ele>239.0</ele><time>2026-03-23T20:18:15.607Z</time></trkpt><trkpt lat="45.691368" lon="9.5587572"><ele>239.00000000000003</ele><time>2026-03-23T20:18:22.587Z</time></trkpt><trkpt lat="45.6913376" lon="9.5586646"><ele>239.00000000000003</ele><time>2026-03-23T20:18:27.443Z</time></trkpt><trkpt lat="45.6913071" lon="9.5585722"><ele>239.14285714285717</ele><time>2026-03-23T20:18:32.595Z</time></trkpt><trkpt lat="45.6912904" lon="9.5584794"><ele>239.28571428571428</ele><time>2026-03-23T20:18:37.588Z</time></trkpt><trkpt lat="45.6912764" lon="9.5583684"><ele>239.42857142857144</ele><time>2026-03-23T20:18:43.592Z</time></trkpt><trkpt lat="45.6912635" lon="9.5582644"><ele>239.57142857142858</ele><time>2026-03-23T20:18:49.561Z</time></trkpt><trkpt lat="45.6913108" lon="9.5581795"><ele>239.71428571428572</ele><time>2026-03-23T20:18:55.589Z</time></trkpt><trkpt lat="45.6913456" lon="9.5580872"><ele>239.85714285714286</ele><time>2026-03-23T20:19:00.594Z</time></trkpt><trkpt lat="45.6913817" lon="9.557995"><ele>240.0</ele><time>2026-03-23T20:19:05.58Z</time></trkpt><trkpt lat="45.6914098" lon="9.5578995"><ele>239.57142857142858</ele><time>2026-03-23T20:19:10.591Z</time></trkpt><trkpt lat="45.6914306" lon="9.5578069"><ele>239.1428571428571</ele><time>2026-03-23T20:19:15.591Z</time></trkpt><trkpt lat="45.691449" lon="9.5577172"><ele>238.7142857142857</ele><time>2026-03-23T20:19:20.536Z</time></trkpt><trkpt lat="45.6914793" lon="9.5576333"><ele>238.28571428571428</ele><time>2026-03-23T20:19:25.583Z</time></trkpt><trkpt lat="45.6915423" lon="9.5575935"><ele>237.85714285714283</ele><time>2026-03-23T20:19:31.592Z</time></trkpt><trkpt lat="45.6916024" lon="9.5576426"><ele>237.4285714285714</ele><time>2026-03-23T20:19:36.52Z</time></trkpt><trkpt lat="45.6916546" lon="9.5577022"><ele>236.99999999999997</ele><time>2026-03-23T20:19:41.602Z</time></trkpt><trkpt lat="45.6917126" lon="9.557752"><ele>236.99999999999997</ele><time>2026-03-23T20:19:46.589Z</time></trkpt><trkpt lat="45.6917691" lon="9.5578011"><ele>237.0</ele><time>2026-03-23T20:19:51.585Z</time></trkpt><trkpt lat="45.691821" lon="9.5578604"><ele>236.99999999999997</ele><time>2026-03-23T20:19:56.592Z</time></trkpt><trkpt lat="45.6918774" lon="9.5579097"><ele>236.99999999999997</ele><time>2026-03-23T20:20:01.589Z</time></trkpt><trkpt lat="45.6919334" lon="9.5579597"><ele>237.0</ele><time>2026-03-23T20:20:06.554Z</time></trkpt><trkpt lat="45.6919927" lon="9.5579976"><ele>236.99999999999997</ele><time>2026-03-23T20:20:11.585Z</time></trkpt><trkpt lat="45.6920545" lon="9.5580353"><ele>236.99999999999997</ele><time>2026-03-23T20:20:16.594Z</time></trkpt><trkpt lat="45.6921142" lon="9.5580744"><ele>237.4285714285714</ele><time>2026-03-23T20:20:21.584Z</time></trkpt><trkpt lat="45.6921716" lon="9.5581137"><ele>237.85714285714283</ele><time>2026-03-23T20:20:26.587Z</time></trkpt><trkpt lat="45.6922315" lon="9.5581771"><ele>238.28571428571428</ele><time>2026-03-23T20:20:32.582Z</time></trkpt><trkpt lat="45.6922892" lon="9.5582233"><ele>238.7142857142857</ele><time>2026-03-23T20:20:37.56Z</time></trkpt><trkpt lat="45.6923521" lon="9.5582806"><ele>239.1428571428571</ele><time>2026-03-23T20:20:43.584Z</time></trkpt><trkpt lat="45.6924171" lon="9.5582798"><ele>239.57142857142858</ele><time>2026-03-23T20:20:48.587Z</time></trkpt><trkpt lat="45.6924823" lon="9.558248"><ele>240.0</ele><time>2026-03-23T20:20:54.545Z</time></trkpt><trkpt lat="45.6925478" lon="9.5582825"><ele>240.0</ele><time>2026-03-23T20:20:59.581Z</time></trkpt><trkpt lat="45.6926058" lon="9.5583423"><ele>240.0</ele><time>2026-03-23T20:21:04.591Z</time></trkpt><trkpt lat="45.6926722" lon="9.5583823"><ele>240.0</ele><time>2026-03-23T20:21:09.589Z</time></trkpt><trkpt lat="45.6927331" lon="9.5584358"><ele>240.0</ele><time>2026-03-23T20:21:14.584Z</time></trkpt><trkpt lat="45.6927936" lon="9.558479"><ele>240.0</ele><time>2026-03-23T20:21:19.582Z</time></trkpt><trkpt lat="45.6928534" lon="9.5585263"><ele>240.0</ele><time>2026-03-23T20:21:24.589Z</time></trkpt><trkpt lat="45.6929116" lon="9.5585748"><ele>240.0</ele><time>2026-03-23T20:21:29.601Z</time></trkpt><trkpt lat="45.6929753" lon="9.5586254"><ele>239.85714285714286</ele><time>2026-03-23T20:21:34.584Z</time></trkpt><trkpt lat="45.6930354" lon="9.5586717"><ele>239.71428571428572</ele><time>2026-03-23T20:21:39.589Z</time></trkpt><trkpt lat="45.6930912" lon="9.5587265"><ele>239.57142857142858</ele><time>2026-03-23T20:21:44.519Z</time></trkpt><trkpt lat="45.6931464" lon="9.5587879"><ele>239.42857142857144</ele><time>2026-03-23T20:21:49.587Z</time></trkpt><trkpt lat="45.6932019" lon="9.5588455"><ele>239.28571428571428</ele><time>2026-03-23T20:21:54.585Z</time></trkpt><trkpt lat="45.6932608" lon="9.5589036"><ele>239.14285714285717</ele><time>2026-03-23T20:21:59.586Z</time></trkpt><trkpt lat="45.6933194" lon="9.5589575"><ele>239.00000000000003</ele><time>2026-03-23T20:22:04.587Z</time></trkpt><trkpt lat="45.6933684" lon="9.5590221"><ele>238.8571428571429</ele><time>2026-03-23T20:22:09.52Z</time></trkpt><trkpt lat="45.6933766" lon="9.5591241"><ele>238.71428571428572</ele><time>2026-03-23T20:22:15.587Z</time></trkpt><trkpt lat="45.6934237" lon="9.5592047"><ele>238.57142857142858</ele><time>2026-03-23T20:22:20.482Z</time></trkpt><trkpt lat="45.6934789" lon="9.5592546"><ele>238.42857142857144</ele><time>2026-03-23T20:22:25.461Z</time></trkpt><trkpt lat="45.6935383" lon="9.5592968"><ele>238.28571428571428</ele><time>2026-03-23T20:22:30.48Z</time></trkpt><trkpt lat="45.6935825" lon="9.5593788"><ele>238.14285714285714</ele><time>2026-03-23T20:22:35.493Z</time></trkpt><trkpt lat="45.6935988" lon="9.5594789"><ele>238.0</ele><time>2026-03-23T20:22:40.586Z</time></trkpt><trkpt lat="45.6936317" lon="9.5595723"><ele>238.0</ele><time>2026-03-23T20:22:46.497Z</time></trkpt><trkpt lat="45.6936566" lon="9.5596584"><ele>238.0</ele><time>2026-03-23T20:22:53.602Z</time></trkpt><trkpt lat="45.6936547" lon="9.5597499"><ele>238.0</ele><time>2026-03-23T20:23:02.59Z</time></trkpt><trkpt lat="45.6936435" lon="9.559843"><ele>238.0</ele><time>2026-03-23T20:23:12.592Z</time></trkpt><trkpt lat="45.6936446" lon="9.5599489"><ele>238.0</ele><time>2026-03-23T20:23:19.586Z</time></trkpt><trkpt lat="45.6936358" lon="9.5600494"><ele>238.0</ele><time>2026-03-23T20:23:25.585Z</time></trkpt><trkpt lat="45.6936119" lon="9.5601377"><ele>238.0</ele><time>2026-03-23T20:23:30.584Z</time></trkpt><trkpt lat="45.6935745" lon="9.5602289"><ele>238.0</ele><time>2026-03-23T20:23:36.589Z</time></trkpt><trkpt lat="45.6935341" lon="9.5603145"><ele>238.0</ele><time>2026-03-23T20:23:41.587Z</time></trkpt><trkpt lat="45.6934994" lon="9.5604125"><ele>238.0</ele><time>2026-03-23T20:23:46.593Z</time></trkpt><trkpt lat="45.6934983" lon="9.5605206"><ele>238.0</ele><time>2026-03-23T20:23:52.591Z</time></trkpt><trkpt lat="45.6935051" lon="9.5606114"><ele>238.0</ele><time>2026-03-23T20:23:57.591Z</time></trkpt><trkpt lat="45.6935456" lon="9.5606871"><ele>238.0</ele><time>2026-03-23T20:24:02.588Z</time></trkpt><trkpt lat="45.6935687" lon="9.5607908"><ele>238.0</ele><time>2026-03-23T20:24:07.524Z</time></trkpt><trkpt lat="45.6935719" lon="9.5608822"><ele>237.85714285714286</ele><time>2026-03-23T20:24:11.54Z</time></trkpt><trkpt lat="45.6935893" lon="9.5609774"><ele>237.71428571428572</ele><time>2026-03-23T20:24:16.596Z</time></trkpt><trkpt lat="45.6935981" lon="9.5610719"><ele>237.57142857142856</ele><time>2026-03-23T20:24:21.584Z</time></trkpt><trkpt lat="45.6936232" lon="9.561164"><ele>237.42857142857142</ele><time>2026-03-23T20:24:26.588Z</time></trkpt><trkpt lat="45.6936385" lon="9.5612528"><ele>237.28571428571428</ele><time>2026-03-23T20:24:31.587Z</time></trkpt><trkpt lat="45.6936461" lon="9.5613453"><ele>237.1428571428571</ele><time>2026-03-23T20:24:36.598Z</time></trkpt><trkpt lat="45.6936566" lon="9.5614426"><ele>236.99999999999997</ele><time>2026-03-23T20:24:41.592Z</time></trkpt><trkpt lat="45.6936818" lon="9.5615365"><ele>237.28571428571425</ele><time>2026-03-23T20:24:46.5Z</time></trkpt><trkpt lat="45.6936956" lon="9.5616416"><ele>237.57142857142856</ele><time>2026-03-23T20:24:51.607Z</time></trkpt><trkpt lat="45.6936861" lon="9.5617393"><ele>237.85714285714286</ele><time>2026-03-23T20:24:55.584Z</time></trkpt><trkpt lat="45.6936897" lon="9.5618412"><ele>238.14285714285714</ele><time>2026-03-23T20:25:00.585Z</time></trkpt><trkpt lat="45.6936907" lon="9.5619332"><ele>238.42857142857144</ele><time>2026-03-23T20:25:05.588Z</time></trkpt><trkpt lat="45.6936964" lon="9.5620329"><ele>238.71428571428575</ele><time>2026-03-23T20:25:11.591Z</time></trkpt><trkpt lat="45.693721" lon="9.5621301"><ele>239.00000000000003</ele><time>2026-03-23T20:25:18.587Z</time></trkpt><trkpt lat="45.6937345" lon="9.5622235"><ele>239.00000000000003</ele><time>2026-03-23T20:25:23.591Z</time></trkpt><trkpt lat="45.693744" lon="9.5623211"><ele>239.0</ele><time>2026-03-23T20:25:28.589Z</time></trkpt><trkpt lat="45.693761" lon="9.5624148"><ele>239.00000000000003</ele><time>2026-03-23T20:25:34.505Z</time></trkpt><trkpt lat="45.6937579" lon="9.5625057"><ele>239.00000000000003</ele><time>2026-03-23T20:25:40.586Z</time></trkpt><trkpt lat="45.6937531" lon="9.562601"><ele>239.0</ele><time>2026-03-23T20:25:45.584Z</time></trkpt><trkpt lat="45.6937497" lon="9.5627"><ele>239.00000000000003</ele><time>2026-03-23T20:25:50.483Z</time></trkpt><trkpt lat="45.693765" lon="9.5628064"><ele>239.00000000000003</ele><time>2026-03-23T20:25:56.437Z</time></trkpt><trkpt lat="45.6937925" lon="9.562907"><ele>238.8571428571429</ele><time>2026-03-23T20:26:02.481Z</time></trkpt><trkpt lat="45.6937984" lon="9.5630129"><ele>238.71428571428572</ele><time>2026-03-23T20:26:08.592Z</time></trkpt><trkpt lat="45.6937968" lon="9.5631036"><ele>238.57142857142858</ele><time>2026-03-23T20:26:13.587Z</time></trkpt><trkpt lat="45.6938049" lon="9.5632053"><ele>238.42857142857144</ele><time>2026-03-23T20:26:18.594Z</time></trkpt><trkpt lat="45.6938229" lon="9.563296"><ele>238.28571428571428</ele><time>2026-03-23T20:26:23.377Z</time></trkpt><trkpt lat="45.6938429" lon="9.5633875"><ele>238.14285714285714</ele><time>2026-03-23T20:26:28.587Z</time></trkpt><trkpt lat="45.6938543" lon="9.5634816"><ele>238.0</ele><time>2026-03-23T20:26:33.589Z</time></trkpt><trkpt lat="45.6938591" lon="9.5635842"><ele>238.0</ele><time>2026-03-23T20:26:38.583Z</time></trkpt><trkpt lat="45.6938657" lon="9.5636878"><ele>238.0</ele><time>2026-03-23T20:26:43.584Z</time></trkpt><trkpt lat="45.6939327" lon="9.5637327"><ele>238.0</ele><time>2026-03-23T20:26:48.582Z</time></trkpt><trkpt lat="45.693996" lon="9.5637458"><ele>238.0</ele><time>2026-03-23T20:26:52.59Z</time></trkpt><trkpt lat="45.6940668" lon="9.5637417"><ele>238.0</ele><time>2026-03-23T20:26:57.584Z</time></trkpt><trkpt lat="45.6941328" lon="9.5637142"><ele>238.0</ele><time>2026-03-23T20:27:02.589Z</time></trkpt><trkpt lat="45.6941928" lon="9.5636648"><ele>238.0</ele><time>2026-03-23T20:27:07.588Z</time></trkpt><trkpt lat="45.6942622" lon="9.5636334"><ele>238.0</ele><time>2026-03-23T20:27:12.591Z</time></trkpt><trkpt lat="45.6943388" lon="9.5636338"><ele>238.0</ele><time>2026-03-23T20:27:19.587Z</time></trkpt><trkpt lat="45.6944082" lon="9.5636262"><ele>238.0</ele><time>2026-03-23T20:27:25.591Z</time></trkpt><trkpt lat="45.6944781" lon="9.5636078"><ele>238.0</ele><time>2026-03-23T20:27:33.559Z</time></trkpt><trkpt lat="45.6945365" lon="9.5635737"><ele>238.0</ele><time>2026-03-23T20:27:38.592Z</time></trkpt><trkpt lat="45.694601" lon="9.5635474"><ele>238.0</ele><time>2026-03-23T20:27:43.584Z</time></trkpt><trkpt lat="45.6946671" lon="9.563535"><ele>238.0</ele><time>2026-03-23T20:27:48.586Z</time></trkpt><trkpt lat="45.694735" lon="9.5635166"><ele>238.0</ele><time>2026-03-23T20:27:53.586Z</time></trkpt><trkpt lat="45.6948006" lon="9.5634957"><ele>238.0</ele><time>2026-03-23T20:27:58.586Z</time></trkpt><trkpt lat="45.6948697" lon="9.5634747"><ele>238.0</ele><time>2026-03-23T20:28:03.579Z</time></trkpt><trkpt lat="45.694937" lon="9.5634546"><ele>238.0</ele><time>2026-03-23T20:28:09.583Z</time></trkpt><trkpt lat="45.6950021" lon="9.5634259"><ele>238.0</ele><time>2026-03-23T20:28:14.592Z</time></trkpt><trkpt lat="45.6950654" lon="9.5633982"><ele>238.0</ele><time>2026-03-23T20:28:19.59Z</time></trkpt><trkpt lat="45.6951294" lon="9.5634013"><ele>238.0</ele><time>2026-03-23T20:28:24.588Z</time></trkpt><trkpt lat="45.6952043" lon="9.5634107"><ele>238.14285714285714</ele><time>2026-03-23T20:28:30.587Z</time></trkpt><trkpt lat="45.695276" lon="9.5634387"><ele>238.28571428571428</ele><time>2026-03-23T20:28:33.539Z</time></trkpt><trkpt lat="45.6953346" lon="9.5635006"><ele>238.42857142857144</ele><time>2026-03-23T20:28:38.587Z</time></trkpt><trkpt lat="45.6953401" lon="9.5636018"><ele>238.57142857142858</ele><time>2026-03-23T20:28:46.581Z</time></trkpt><trkpt lat="45.6953475" lon="9.5637093"><ele>238.71428571428572</ele><time>2026-03-23T20:28:52.584Z</time></trkpt><trkpt lat="45.6953461" lon="9.5638146"><ele>238.8571428571429</ele><time>2026-03-23T20:28:58.586Z</time></trkpt><trkpt lat="45.69534" lon="9.563905"><ele>239.00000000000003</ele><time>2026-03-23T20:29:03.59Z</time></trkpt><trkpt lat="45.6953412" lon="9.5639959"><ele>239.00000000000003</ele><time>2026-03-23T20:29:08.586Z</time></trkpt><trkpt lat="45.6953519" lon="9.5640877"><ele>239.0</ele><time>2026-03-23T20:29:13.585Z</time></trkpt><trkpt lat="45.6953651" lon="9.5641774"><ele>239.00000000000003</ele><time>2026-03-23T20:29:17.578Z</time></trkpt><trkpt lat="45.6953934" lon="9.5642763"><ele>239.00000000000003</ele><time>2026-03-23T20:29:22.596Z</time></trkpt><trkpt lat="45.6954005" lon="9.5643755"><ele>239.0</ele><time>2026-03-23T20:29:27.606Z</time></trkpt><trkpt lat="45.6954131" lon="9.5644802"><ele>239.00000000000003</ele><time>2026-03-23T20:29:32.59Z</time></trkpt><trkpt lat="45.6954284" lon="9.5645874"><ele>239.00000000000003</ele><time>2026-03-23T20:29:37.593Z</time></trkpt><trkpt lat="45.6954421" lon="9.5646863"><ele>239.00000000000003</ele><time>2026-03-23T20:29:42.589Z</time></trkpt><trkpt lat="45.6954517" lon="9.564778"><ele>239.0</ele><time>2026-03-23T20:29:47.583Z</time></trkpt><trkpt lat="45.6954624" lon="9.5648739"><ele>239.00000000000003</ele><time>2026-03-23T20:29:52.587Z</time></trkpt><trkpt lat="45.6954749" lon="9.5649721"><ele>239.00000000000003</ele><time>2026-03-23T20:29:57.587Z</time></trkpt><trkpt lat="45.6954835" lon="9.5650774"><ele>239.0</ele><time>2026-03-23T20:30:03.588Z</time></trkpt><trkpt lat="45.6954854" lon="9.5651771"><ele>239.00000000000003</ele><time>2026-03-23T20:30:08.586Z</time></trkpt><trkpt lat="45.6954921" lon="9.5652677"><ele>239.00000000000003</ele><time>2026-03-23T20:30:13.545Z</time></trkpt><trkpt lat="45.6954937" lon="9.5653725"><ele>238.8571428571429</ele><time>2026-03-23T20:30:19.556Z</time></trkpt><trkpt lat="45.6955134" lon="9.5654728"><ele>238.71428571428572</ele><time>2026-03-23T20:30:24.587Z</time></trkpt><trkpt lat="45.695524" lon="9.565572"><ele>238.57142857142858</ele><time>2026-03-23T20:30:29.581Z</time></trkpt><trkpt lat="45.6955323" lon="9.5656682"><ele>238.42857142857144</ele><time>2026-03-23T20:30:34.597Z</time></trkpt><trkpt lat="45.6955458" lon="9.5657653"><ele>238.28571428571428</ele><time>2026-03-23T20:30:39.589Z</time></trkpt><trkpt lat="45.6955621" lon="9.5658695"><ele>238.14285714285714</ele><time>2026-03-23T20:30:45.595Z</time></trkpt><trkpt lat="45.6955796" lon="9.5659669"><ele>238.0</ele><time>2026-03-23T20:30:51.586Z</time></trkpt><trkpt lat="45.695591" lon="9.5660708"><ele>238.0</ele><time>2026-03-23T20:30:58.588Z</time></trkpt><trkpt lat="45.6956018" lon="9.5661636"><ele>238.0</ele><time>2026-03-23T20:31:03.585Z</time></trkpt><trkpt lat="45.6956144" lon="9.5662614"><ele>238.0</ele><time>2026-03-23T20:31:08.584Z</time></trkpt><trkpt lat="45.6956289" lon="9.566354"><ele>238.0</ele><time>2026-03-23T20:31:12.584Z</time></trkpt><trkpt lat="45.6956445" lon="9.5664603"><ele>238.0</ele><time>2026-03-23T20:31:17.538Z</time></trkpt><trkpt lat="45.6956624" lon="9.5665546"><ele>238.0</ele><time>2026-03-23T20:31:21.585Z</time></trkpt><trkpt lat="45.6956725" lon="9.5666458"><ele>238.0</ele><time>2026-03-23T20:31:25.589Z</time></trkpt><trkpt lat="45.6956959" lon="9.5667578"><ele>237.85714285714286</ele><time>2026-03-23T20:31:30.59Z</time></trkpt><trkpt lat="45.6957185" lon="9.5668573"><ele>237.71428571428572</ele><time>2026-03-23T20:31:35.586Z</time></trkpt><trkpt lat="45.6957388" lon="9.5669434"><ele>237.57142857142856</ele><time>2026-03-23T20:31:39.591Z</time></trkpt><trkpt lat="45.6957447" lon="9.567034"><ele>237.42857142857142</ele><time>2026-03-23T20:31:43.523Z</time></trkpt><trkpt lat="45.69574" lon="9.5671261"><ele>237.28571428571428</ele><time>2026-03-23T20:31:47.592Z</time></trkpt><trkpt lat="45.695676" lon="9.5671471"><ele>237.1428571428571</ele><time>2026-03-23T20:31:54.582Z</time></trkpt><trkpt lat="45.695592" lon="9.5671118"><ele>236.99999999999997</ele><time>2026-03-23T20:32:11.59Z</time></trkpt><trkpt lat="45.6955868" lon="9.5672143"><ele>236.99999999999997</ele><time>2026-03-23T20:32:26.586Z</time></trkpt><trkpt lat="45.6956138" lon="9.5673177"><ele>237.0</ele><time>2026-03-23T20:32:30.584Z</time></trkpt><trkpt lat="45.6956512" lon="9.5673914"><ele>236.99999999999997</ele><time>2026-03-23T20:32:56.587Z</time></trkpt><trkpt lat="45.6956204" lon="9.5674833"><ele>236.99999999999997</ele><time>2026-03-23T20:33:01.583Z</time></trkpt><trkpt lat="45.6955776" lon="9.5675635"><ele>237.0</ele><time>2026-03-23T20:33:06.583Z</time></trkpt><trkpt lat="45.6955508" lon="9.5676606"><ele>236.99999999999997</ele><time>2026-03-23T20:33:11.581Z</time></trkpt><trkpt lat="45.6955257" lon="9.567751"><ele>236.99999999999997</ele><time>2026-03-23T20:33:17.384Z</time></trkpt><trkpt lat="45.6955121" lon="9.5678489"><ele>236.71428571428567</ele><time>2026-03-23T20:33:22.591Z</time></trkpt><trkpt lat="45.6954981" lon="9.5679576"><ele>236.42857142857142</ele><time>2026-03-23T20:33:27.584Z</time></trkpt><trkpt lat="45.6954735" lon="9.56806"><ele>236.1428571428571</ele><time>2026-03-23T20:33:32.583Z</time></trkpt><trkpt lat="45.6954491" lon="9.5681637"><ele>235.85714285714283</ele><time>2026-03-23T20:33:37.586Z</time></trkpt><trkpt lat="45.6954341" lon="9.5682626"><ele>235.57142857142856</ele><time>2026-03-23T20:33:42.584Z</time></trkpt><trkpt lat="45.6954295" lon="9.5683666"><ele>235.28571428571428</ele><time>2026-03-23T20:33:47.584Z</time></trkpt><trkpt lat="45.6954318" lon="9.5684693"><ele>235.0</ele><time>2026-03-23T20:33:52.585Z</time></trkpt><trkpt lat="45.6954148" lon="9.5685783"><ele>235.0</ele><time>2026-03-23T20:33:57.583Z</time></trkpt><trkpt lat="45.6953972" lon="9.5686863"><ele>234.99999999999997</ele><time>2026-03-23T20:34:02.583Z</time></trkpt><trkpt lat="45.695375" lon="9.5687788"><ele>235.0</ele><time>2026-03-23T20:34:07.597Z</time></trkpt><trkpt lat="45.6953534" lon="9.5688689"><ele>235.0</ele><time>2026-03-23T20:34:12.584Z</time></trkpt><trkpt lat="45.6953133" lon="9.5689397"><ele>234.99999999999997</ele><time>2026-03-23T20:34:17.581Z</time></trkpt><trkpt lat="45.695252" lon="9.5689619"><ele>235.0</ele><time>2026-03-23T20:34:21.59Z</time></trkpt><trkpt lat="45.6951889" lon="9.5690086"><ele>235.0</ele><time>2026-03-23T20:34:26.588Z</time></trkpt><trkpt lat="45.6951264" lon="9.569067"><ele>235.14285714285714</ele><time>2026-03-23T20:34:31.587Z</time></trkpt><trkpt lat="45.6950703" lon="9.5691283"><ele>235.28571428571428</ele><time>2026-03-23T20:34:36.586Z</time></trkpt><trkpt lat="45.6950147" lon="9.5691804"><ele>235.42857142857142</ele><time>2026-03-23T20:34:41.597Z</time></trkpt><trkpt lat="45.6949611" lon="9.569236"><ele>235.57142857142856</ele><time>2026-03-23T20:34:46.501Z</time></trkpt><trkpt lat="45.6949014" lon="9.5692955"><ele>235.71428571428572</ele><time>2026-03-23T20:34:51.5Z</time></trkpt><trkpt lat="45.6948506" lon="9.5693622"><ele>235.85714285714283</ele><time>2026-03-23T20:34:56.48Z</time></trkpt><trkpt lat="45.6947957" lon="9.5694369"><ele>236.0</ele><time>2026-03-23T20:35:01.564Z</time></trkpt><trkpt lat="45.6947361" lon="9.5695028"><ele>236.0</ele><time>2026-03-23T20:35:06.586Z</time></trkpt><trkpt lat="45.6946812" lon="9.5695565"><ele>236.0</ele><time>2026-03-23T20:35:11.592Z</time></trkpt><trkpt lat="45.6946208" lon="9.569611"><ele>236.0</ele><time>2026-03-23T20:35:16.559Z</time></trkpt><trkpt lat="45.6945583" lon="9.5696584"><ele>236.0</ele><time>2026-03-23T20:35:21.58Z</time></trkpt><trkpt lat="45.6945001" lon="9.569702"><ele>236.0</ele><time>2026-03-23T20:35:25.588Z</time></trkpt><trkpt lat="45.6944362" lon="9.5697494"><ele>236.0</ele><time>2026-03-23T20:35:30.587Z</time></trkpt><trkpt lat="45.694376" lon="9.5697991"><ele>236.0</ele><time>2026-03-23T20:35:37.599Z</time></trkpt><trkpt lat="45.6943744" lon="9.5698994"><ele>236.0</ele><time>2026-03-23T20:35:43.594Z</time></trkpt><trkpt lat="45.6944099" lon="9.5699768"><ele>236.0</ele><time>2026-03-23T20:35:48.586Z</time></trkpt><trkpt lat="45.6944816" lon="9.5700151"><ele>236.0</ele><time>2026-03-23T20:35:53.596Z</time></trkpt><trkpt lat="45.6945216" lon="9.570107"><ele>236.0</ele><time>2026-03-23T20:35:58.544Z</time></trkpt><trkpt lat="45.6945425" lon="9.5702033"><ele>236.0</ele><time>2026-03-23T20:36:04.596Z</time></trkpt><trkpt lat="45.6945151" lon="9.5703019"><ele>236.0</ele><time>2026-03-23T20:36:11.561Z</time></trkpt><trkpt lat="45.6944908" lon="9.5703984"><ele>236.0</ele><time>2026-03-23T20:36:18.527Z</time></trkpt><trkpt lat="45.6944369" lon="9.5703462"><ele>236.0</ele><time>2026-03-23T20:36:27.6Z</time></trkpt><trkpt lat="45.6944391" lon="9.5702547"><ele>236.0</ele><time>2026-03-23T20:36:32.517Z</time></trkpt><trkpt lat="45.6943881" lon="9.5701967"><ele>236.0</ele><time>2026-03-23T20:36:37.597Z</time></trkpt><trkpt lat="45.6943419" lon="9.5701315"><ele>236.0</ele><time>2026-03-23T20:36:41.596Z</time></trkpt><trkpt lat="45.6943418" lon="9.5700235"><ele>236.0</ele><time>2026-03-23T20:36:47.591Z</time></trkpt><trkpt lat="45.6943423" lon="9.5699258"><ele>236.0</ele><time>2026-03-23T20:36:52.594Z</time></trkpt><trkpt lat="45.6942829" lon="9.5698947"><ele>236.0</ele><time>2026-03-23T20:36:59.607Z</time></trkpt><trkpt lat="45.6942175" lon="9.5699014"><ele>236.0</ele><time>2026-03-23T20:37:05.564Z</time></trkpt><trkpt lat="45.6941487" lon="9.5699232"><ele>236.0</ele><time>2026-03-23T20:37:17.594Z</time></trkpt><trkpt lat="45.6940859" lon="9.5699478"><ele>236.0</ele><time>2026-03-23T20:37:22.598Z</time></trkpt><trkpt lat="45.6940128" lon="9.5699629"><ele>236.0</ele><time>2026-03-23T20:37:28.597Z</time></trkpt><trkpt lat="45.693947" lon="9.5699691"><ele>236.0</ele><time>2026-03-23T20:37:33.596Z</time></trkpt><trkpt lat="45.6938746" lon="9.569979"><ele>236.0</ele><time>2026-03-23T20:37:38.619Z</time></trkpt><trkpt lat="45.6938105" lon="9.569995"><ele>236.0</ele><time>2026-03-23T20:37:43.504Z</time></trkpt><trkpt lat="45.6937449" lon="9.5700009"><ele>236.0</ele><time>2026-03-23T20:37:47.569Z</time></trkpt><trkpt lat="45.6936737" lon="9.5700061"><ele>236.0</ele><time>2026-03-23T20:37:52.583Z</time></trkpt><trkpt lat="45.6936088" lon="9.5699864"><ele>236.0</ele><time>2026-03-23T20:37:56.633Z</time></trkpt><trkpt lat="45.6935447" lon="9.5699438"><ele>236.0</ele><time>2026-03-23T20:38:01.595Z</time></trkpt><trkpt lat="45.6934783" lon="9.5699091"><ele>236.0</ele><time>2026-03-23T20:38:07.597Z</time></trkpt><trkpt lat="45.6934068" lon="9.5699153"><ele>236.0</ele><time>2026-03-23T20:38:13.592Z</time></trkpt><trkpt lat="45.6933319" lon="9.5699164"><ele>236.0</ele><time>2026-03-23T20:38:19.522Z</time></trkpt><trkpt lat="45.6932684" lon="9.5699193"><ele>236.28571428571428</ele><time>2026-03-23T20:38:24.609Z</time></trkpt><trkpt lat="45.6932054" lon="9.5699057"><ele>236.57142857142858</ele><time>2026-03-23T20:38:30.521Z</time></trkpt><trkpt lat="45.6931406" lon="9.5699145"><ele>236.85714285714286</ele><time>2026-03-23T20:39:00.497Z</time></trkpt><trkpt lat="45.6930765" lon="9.5699266"><ele>237.14285714285714</ele><time>2026-03-23T20:39:04.578Z</time></trkpt><trkpt lat="45.6930077" lon="9.5698744"><ele>237.42857142857144</ele><time>2026-03-23T20:39:08.536Z</time></trkpt><trkpt lat="45.6929412" lon="9.5698418"><ele>237.71428571428572</ele><time>2026-03-23T20:39:14.584Z</time></trkpt><trkpt lat="45.6928843" lon="9.5697901"><ele>238.0</ele><time>2026-03-23T20:39:18.583Z</time></trkpt><trkpt lat="45.6928182" lon="9.5698072"><ele>237.57142857142856</ele><time>2026-03-23T20:39:23.587Z</time></trkpt><trkpt lat="45.6927533" lon="9.5698366"><ele>237.14285714285714</ele><time>2026-03-23T20:39:30.587Z</time></trkpt><trkpt lat="45.69269" lon="9.5698454"><ele>236.71428571428572</ele><time>2026-03-23T20:39:39.59Z</time></trkpt><trkpt lat="45.6926225" lon="9.5698791"><ele>236.28571428571428</ele><time>2026-03-23T20:40:00.591Z</time></trkpt><trkpt lat="45.6925571" lon="9.5698985"><ele>235.85714285714283</ele><time>2026-03-23T20:40:07.586Z</time></trkpt><trkpt lat="45.6924877" lon="9.5699236"><ele>235.42857142857142</ele><time>2026-03-23T20:40:14.585Z</time></trkpt><trkpt lat="45.6924176" lon="9.5699403"><ele>235.0</ele><time>2026-03-23T20:40:20.583Z</time></trkpt><trkpt lat="45.6923519" lon="9.5699509"><ele>235.0</ele><time>2026-03-23T20:40:24.592Z</time></trkpt><trkpt lat="45.6923019" lon="9.5698819"><ele>234.99999999999997</ele><time>2026-03-23T20:40:29.636Z</time></trkpt><trkpt lat="45.6922721" lon="9.5697916"><ele>235.0</ele><time>2026-03-23T20:40:36.593Z</time></trkpt><trkpt lat="45.6922676" lon="9.5696938"><ele>235.0</ele><time>2026-03-23T20:40:42.586Z</time></trkpt><trkpt lat="45.6922099" lon="9.5696315"><ele>234.99999999999997</ele><time>2026-03-23T20:40:49.591Z</time></trkpt><trkpt lat="45.6921589" lon="9.5695693"><ele>235.0</ele><time>2026-03-23T20:40:54.588Z</time></trkpt><trkpt lat="45.6920917" lon="9.5695434"><ele>235.0</ele><time>2026-03-23T20:41:01.591Z</time></trkpt><trkpt lat="45.692029" lon="9.5695778"><ele>235.14285714285714</ele><time>2026-03-23T20:41:06.591Z</time></trkpt><trkpt lat="45.691991" lon="9.5695"><ele>235.28571428571428</ele><time>2026-03-23T20:41:09.589Z</time></trkpt><trkpt lat="45.6919917" lon="9.5693999"><ele>235.42857142857142</ele><time>2026-03-23T20:41:13.583Z</time></trkpt><trkpt lat="45.6920065" lon="9.5692965"><ele>235.57142857142856</ele><time>2026-03-23T20:41:20.584Z</time></trkpt><trkpt lat="45.691938" lon="9.5692539"><ele>235.71428571428572</ele><time>2026-03-23T20:41:27.584Z</time></trkpt><trkpt lat="45.6918838" lon="9.5691958"><ele>235.85714285714283</ele><time>2026-03-23T20:41:31.583Z</time></trkpt><trkpt lat="45.6919052" lon="9.5691"><ele>236.0</ele><time>2026-03-23T20:41:38.627Z</time></trkpt><trkpt lat="45.6918461" lon="9.5690418"><ele>236.0</ele><time>2026-03-23T20:41:42.539Z</time></trkpt><trkpt lat="45.6917962" lon="9.5689802"><ele>236.0</ele><time>2026-03-23T20:41:48.585Z</time></trkpt><trkpt lat="45.6917674" lon="9.5688922"><ele>236.0</ele><time>2026-03-23T20:41:55.582Z</time></trkpt><trkpt lat="45.6916968" lon="9.5688785"><ele>236.0</ele><time>2026-03-23T20:42:01.584Z</time></trkpt><trkpt lat="45.6916591" lon="9.568803"><ele>236.0</ele><time>2026-03-23T20:42:07.586Z</time></trkpt><trkpt lat="45.691664" lon="9.568709"><ele>236.0</ele><time>2026-03-23T20:42:14.586Z</time></trkpt><trkpt lat="45.6916754" lon="9.568607"><ele>236.0</ele><time>2026-03-23T20:42:25.587Z</time></trkpt><trkpt lat="45.6916859" lon="9.5685102"><ele>236.14285714285714</ele><time>2026-03-23T20:42:32.538Z</time></trkpt><trkpt lat="45.6916772" lon="9.5684153"><ele>236.28571428571428</ele><time>2026-03-23T20:42:37.586Z</time></trkpt><trkpt lat="45.6916532" lon="9.5683133"><ele>236.42857142857142</ele><time>2026-03-23T20:42:43.586Z</time></trkpt><trkpt lat="45.6915912" lon="9.5682679"><ele>236.57142857142856</ele><time>2026-03-23T20:42:49.59Z</time></trkpt><trkpt lat="45.6915308" lon="9.5682378"><ele>236.71428571428572</ele><time>2026-03-23T20:42:54.585Z</time></trkpt><trkpt lat="45.6914729" lon="9.5681782"><ele>236.85714285714283</ele><time>2026-03-23T20:42:59.545Z</time></trkpt><trkpt lat="45.6914049" lon="9.5681876"><ele>236.99999999999997</ele><time>2026-03-23T20:43:08.594Z</time></trkpt><trkpt lat="45.6914564" lon="9.568256"><ele>236.99999999999997</ele><time>2026-03-23T20:43:15.581Z</time></trkpt><trkpt lat="45.6914848" lon="9.5683417"><ele>237.0</ele><time>2026-03-23T20:43:23.585Z</time></trkpt><trkpt lat="45.6914144" lon="9.5683389"><ele>236.99999999999997</ele><time>2026-03-23T20:43:39.539Z</time></trkpt><trkpt lat="45.6913946" lon="9.5682366"><ele>236.99999999999997</ele><time>2026-03-23T20:43:44.585Z</time></trkpt><trkpt lat="45.6913948" lon="9.5681358"><ele>237.0</ele><time>2026-03-23T20:43:49.585Z</time></trkpt><trkpt lat="45.691384" lon="9.5680359"><ele>236.99999999999997</ele><time>2026-03-23T20:43:55.584Z</time></trkpt><trkpt lat="45.6913573" lon="9.567954"><ele>236.99999999999997</ele><time>2026-03-23T20:43:59.405Z</time></trkpt><trkpt lat="45.6913184" lon="9.5678828"><ele>236.99999999999997</ele><time>2026-03-23T20:44:03.536Z</time></trkpt><trkpt lat="45.6912751" lon="9.5678141"><ele>237.0</ele><time>2026-03-23T20:44:07.591Z</time></trkpt><trkpt lat="45.6911961" lon="9.5677922"><ele>236.99999999999997</ele><time>2026-03-23T20:44:12.589Z</time></trkpt><trkpt lat="45.6911243" lon="9.5677985"><ele>236.99999999999997</ele><time>2026-03-23T20:44:17.588Z</time></trkpt><trkpt lat="45.6910547" lon="9.5678166"><ele>237.0</ele><time>2026-03-23T20:44:21.59Z</time></trkpt><trkpt lat="45.6909906" lon="9.5678338"><ele>236.99999999999997</ele><time>2026-03-23T20:44:25.589Z</time></trkpt><trkpt lat="45.6909206" lon="9.5678453"><ele>236.99999999999997</ele><time>2026-03-23T20:44:29.482Z</time></trkpt><trkpt lat="45.6908486" lon="9.5678655"><ele>236.99999999999997</ele><time>2026-03-23T20:44:34.545Z</time></trkpt><trkpt lat="45.6907746" lon="9.5678912"><ele>237.0</ele><time>2026-03-23T20:44:39.593Z</time></trkpt><trkpt lat="45.6907086" lon="9.5679029"><ele>236.99999999999997</ele><time>2026-03-23T20:44:43.584Z</time></trkpt><trkpt lat="45.6906382" lon="9.5678867"><ele>236.99999999999997</ele><time>2026-03-23T20:44:48.582Z</time></trkpt><trkpt lat="45.6905728" lon="9.5679028"><ele>237.0</ele><time>2026-03-23T20:44:53.583Z</time></trkpt><trkpt lat="45.6905003" lon="9.5679026"><ele>236.99999999999997</ele><time>2026-03-23T20:44:58.586Z</time></trkpt><trkpt lat="45.6904293" lon="9.5679125"><ele>236.99999999999997</ele><time>2026-03-23T20:45:02.631Z</time></trkpt><trkpt lat="45.690352" lon="9.5679169"><ele>236.99999999999997</ele><time>2026-03-23T20:45:08.584Z</time></trkpt><trkpt lat="45.6902801" lon="9.5679401"><ele>237.0</ele><time>2026-03-23T20:45:13.592Z</time></trkpt><trkpt lat="45.6902175" lon="9.5679235"><ele>236.99999999999997</ele><time>2026-03-23T20:45:18.584Z</time></trkpt><trkpt lat="45.6901477" lon="9.5679043"><ele>236.99999999999997</ele><time>2026-03-23T20:45:23.589Z</time></trkpt><trkpt lat="45.6900847" lon="9.5678975"><ele>237.0</ele><time>2026-03-23T20:45:28.587Z</time></trkpt><trkpt lat="45.6900053" lon="9.5678827"><ele>236.99999999999997</ele><time>2026-03-23T20:45:33.583Z</time></trkpt><trkpt lat="45.689939" lon="9.5678791"><ele>236.99999999999997</ele><time>2026-03-23T20:45:37.518Z</time></trkpt><trkpt lat="45.6898704" lon="9.567872"><ele>236.71428571428567</ele><time>2026-03-23T20:45:42.589Z</time></trkpt><trkpt lat="45.6898045" lon="9.5678639"><ele>236.42857142857142</ele><time>2026-03-23T20:45:48.586Z</time></trkpt><trkpt lat="45.6897404" lon="9.5678427"><ele>236.1428571428571</ele><time>2026-03-23T20:45:53.459Z</time></trkpt><trkpt lat="45.6896771" lon="9.5678317"><ele>235.85714285714283</ele><time>2026-03-23T20:45:59.458Z</time></trkpt><trkpt lat="45.6896098" lon="9.5678034"><ele>235.57142857142856</ele><time>2026-03-23T20:46:04.486Z</time></trkpt><trkpt lat="45.6895332" lon="9.5677813"><ele>235.28571428571428</ele><time>2026-03-23T20:46:09.541Z</time></trkpt><trkpt lat="45.6894609" lon="9.5677577"><ele>235.0</ele><time>2026-03-23T20:46:14.589Z</time></trkpt><trkpt lat="45.689399" lon="9.5677299"><ele>234.7142857142857</ele><time>2026-03-23T20:46:19.586Z</time></trkpt><trkpt lat="45.6893209" lon="9.5677168"><ele>234.4285714285714</ele><time>2026-03-23T20:46:24.59Z</time></trkpt><trkpt lat="45.6892478" lon="9.5677075"><ele>234.14285714285714</ele><time>2026-03-23T20:46:30.583Z</time></trkpt><trkpt lat="45.6891807" lon="9.5677175"><ele>233.85714285714283</ele><time>2026-03-23T20:46:35.554Z</time></trkpt><trkpt lat="45.6891165" lon="9.5677317"><ele>233.57142857142856</ele><time>2026-03-23T20:46:40.59Z</time></trkpt><trkpt lat="45.6890505" lon="9.5677591"><ele>233.28571428571428</ele><time>2026-03-23T20:46:46.589Z</time></trkpt><trkpt lat="45.6889812" lon="9.5677811"><ele>233.0</ele><time>2026-03-23T20:46:53.578Z</time></trkpt><trkpt lat="45.6889147" lon="9.5678339"><ele>233.0</ele><time>2026-03-23T20:46:59.561Z</time></trkpt><trkpt lat="45.6888441" lon="9.567865"><ele>233.0</ele><time>2026-03-23T20:47:04.58Z</time></trkpt><trkpt lat="45.688776" lon="9.5679091"><ele>233.0</ele><time>2026-03-23T20:47:09.519Z</time></trkpt><trkpt lat="45.6887036" lon="9.5679379"><ele>233.0</ele><time>2026-03-23T20:47:14.596Z</time></trkpt><trkpt lat="45.6886349" lon="9.567982"><ele>233.0</ele><time>2026-03-23T20:47:19.59Z</time></trkpt><trkpt lat="45.6885749" lon="9.5680211"><ele>233.0</ele><time>2026-03-23T20:47:23.581Z</time></trkpt><trkpt lat="45.6885156" lon="9.5680682"><ele>233.0</ele><time>2026-03-23T20:47:28.587Z</time></trkpt><trkpt lat="45.6884563" lon="9.5681213"><ele>232.85714285714286</ele><time>2026-03-23T20:47:33.578Z</time></trkpt><trkpt lat="45.6883908" lon="9.568152"><ele>232.71428571428572</ele><time>2026-03-23T20:47:38.587Z</time></trkpt><trkpt lat="45.6883223" lon="9.5681803"><ele>232.57142857142858</ele><time>2026-03-23T20:47:43.583Z</time></trkpt><trkpt lat="45.6882549" lon="9.5682293"><ele>232.42857142857144</ele><time>2026-03-23T20:47:48.525Z</time></trkpt><trkpt lat="45.6881912" lon="9.5682842"><ele>232.28571428571428</ele><time>2026-03-23T20:47:53.439Z</time></trkpt><trkpt lat="45.6881294" lon="9.5683244"><ele>232.14285714285717</ele><time>2026-03-23T20:47:58.419Z</time></trkpt><trkpt lat="45.6880654" lon="9.5683692"><ele>232.00000000000003</ele><time>2026-03-23T20:48:03.397Z</time></trkpt><trkpt lat="45.6880072" lon="9.568422"><ele>232.00000000000003</ele><time>2026-03-23T20:48:08.299Z</time></trkpt><trkpt lat="45.6879438" lon="9.5684655"><ele>232.0</ele><time>2026-03-23T20:48:13.179Z</time></trkpt><trkpt lat="45.6878724" lon="9.5684703"><ele>232.00000000000003</ele><time>2026-03-23T20:48:17.163Z</time></trkpt><trkpt lat="45.6878099" lon="9.5685131"><ele>232.00000000000003</ele><time>2026-03-23T20:48:22.162Z</time></trkpt><trkpt lat="45.6877506" lon="9.5685559"><ele>232.0</ele><time>2026-03-23T20:48:27.239Z</time></trkpt><trkpt lat="45.6876977" lon="9.5686216"><ele>232.00000000000003</ele><time>2026-03-23T20:48:32.343Z</time></trkpt><trkpt lat="45.6876612" lon="9.5687183"><ele>232.00000000000003</ele><time>2026-03-23T20:48:37.342Z</time></trkpt><trkpt lat="45.6876191" lon="9.568795"><ele>232.00000000000003</ele><time>2026-03-23T20:48:41.584Z</time></trkpt><trkpt lat="45.6875724" lon="9.5688813"><ele>232.0</ele><time>2026-03-23T20:48:46.578Z</time></trkpt><trkpt lat="45.6875378" lon="9.5689712"><ele>232.00000000000003</ele><time>2026-03-23T20:48:51.583Z</time></trkpt><trkpt lat="45.6875278" lon="9.56907"><ele>232.00000000000003</ele><time>2026-03-23T20:48:56.59Z</time></trkpt><trkpt lat="45.6875323" lon="9.5691735"><ele>232.0</ele><time>2026-03-23T20:49:01.524Z</time></trkpt><trkpt lat="45.6875439" lon="9.5692701"><ele>232.00000000000003</ele><time>2026-03-23T20:49:06.522Z</time></trkpt><trkpt lat="45.6875564" lon="9.5693708"><ele>232.00000000000003</ele><time>2026-03-23T20:49:11.578Z</time></trkpt><trkpt lat="45.6875449" lon="9.5694726"><ele>231.71428571428575</ele><time>2026-03-23T20:49:16.542Z</time></trkpt><trkpt lat="45.6874984" lon="9.5695564"><ele>231.42857142857144</ele><time>2026-03-23T20:49:21.593Z</time></trkpt><trkpt lat="45.6874206" lon="9.5695841"><ele>231.14285714285714</ele><time>2026-03-23T20:49:26.586Z</time></trkpt><trkpt lat="45.6873519" lon="9.5696122"><ele>230.85714285714286</ele><time>2026-03-23T20:49:31.601Z</time></trkpt><trkpt lat="45.6872818" lon="9.5696352"><ele>230.57142857142856</ele><time>2026-03-23T20:49:36.56Z</time></trkpt><trkpt lat="45.6872121" lon="9.5696605"><ele>230.28571428571425</ele><time>2026-03-23T20:49:41.522Z</time></trkpt><trkpt lat="45.6871442" lon="9.5696771"><ele>229.99999999999997</ele><time>2026-03-23T20:49:46.583Z</time></trkpt><trkpt lat="45.6870773" lon="9.5696949"><ele>229.99999999999997</ele><time>2026-03-23T20:49:51.584Z</time></trkpt><trkpt lat="45.6870098" lon="9.5697055"><ele>230.0</ele><time>2026-03-23T20:49:56.584Z</time></trkpt><trkpt lat="45.6869461" lon="9.5697101"><ele>229.99999999999997</ele><time>2026-03-23T20:50:01.501Z</time></trkpt><trkpt lat="45.6868806" lon="9.5697136"><ele>229.99999999999997</ele><time>2026-03-23T20:50:06.588Z</time></trkpt><trkpt lat="45.6868127" lon="9.5697361"><ele>230.0</ele><time>2026-03-23T20:50:11.584Z</time></trkpt><trkpt lat="45.686741" lon="9.5697542"><ele>229.99999999999997</ele><time>2026-03-23T20:50:16.586Z</time></trkpt><trkpt lat="45.6866693" lon="9.5697604"><ele>229.99999999999997</ele><time>2026-03-23T20:50:21.549Z</time></trkpt><trkpt lat="45.6866031" lon="9.5697359"><ele>229.85714285714283</ele><time>2026-03-23T20:50:26.483Z</time></trkpt><trkpt lat="45.686534" lon="9.5697655"><ele>229.71428571428572</ele><time>2026-03-23T20:50:31.484Z</time></trkpt><trkpt lat="45.6865182" lon="9.5698575"><ele>229.57142857142856</ele><time>2026-03-23T20:50:36.519Z</time></trkpt><trkpt lat="45.6865784" lon="9.5698919"><ele>229.42857142857142</ele><time>2026-03-23T20:50:40.587Z</time></trkpt><trkpt lat="45.6866518" lon="9.5698874"><ele>229.28571428571428</ele><time>2026-03-23T20:50:45.584Z</time></trkpt><trkpt lat="45.6867162" lon="9.5698468"><ele>229.14285714285714</ele><time>2026-03-23T20:50:49.584Z</time></trkpt><trkpt lat="45.6867792" lon="9.5697933"><ele>229.0</ele><time>2026-03-23T20:50:54.591Z</time></trkpt><trkpt lat="45.6868575" lon="9.5697732"><ele>229.14285714285714</ele><time>2026-03-23T20:50:59.587Z</time></trkpt><trkpt lat="45.6869329" lon="9.5697756"><ele>229.28571428571428</ele><time>2026-03-23T20:51:04.593Z</time></trkpt><trkpt lat="45.6870013" lon="9.5697831"><ele>229.42857142857142</ele><time>2026-03-23T20:51:08.588Z</time></trkpt><trkpt lat="45.687066" lon="9.569794"><ele>229.57142857142856</ele><time>2026-03-23T20:51:18.589Z</time></trkpt><trkpt lat="45.687146" lon="9.5697743"><ele>229.71428571428572</ele><time>2026-03-23T20:51:26.584Z</time></trkpt><trkpt lat="45.6872139" lon="9.5697149"><ele>229.85714285714283</ele><time>2026-03-23T20:51:32.591Z</time></trkpt><trkpt lat="45.6872737" lon="9.5696853"><ele>229.99999999999997</ele><time>2026-03-23T20:51:37.582Z</time></trkpt><trkpt lat="45.6873347" lon="9.5696147"><ele>229.99999999999997</ele><time>2026-03-23T20:51:43.588Z</time></trkpt><trkpt lat="45.6874126" lon="9.5696216"><ele>230.0</ele><time>2026-03-23T20:51:47.628Z</time></trkpt><trkpt lat="45.6874897" lon="9.5696199"><ele>229.99999999999997</ele><time>2026-03-23T20:51:52.382Z</time></trkpt><trkpt lat="45.6875411" lon="9.5695592"><ele>229.99999999999997</ele><time>2026-03-23T20:51:56.297Z</time></trkpt><trkpt lat="45.6875804" lon="9.5694888"><ele>230.0</ele><time>2026-03-23T20:52:00.234Z</time></trkpt><trkpt lat="45.6876013" lon="9.5694007"><ele>229.99999999999997</ele><time>2026-03-23T20:52:04.278Z</time></trkpt><trkpt lat="45.687606" lon="9.569301"><ele>229.99999999999997</ele><time>2026-03-23T20:52:08.563Z</time></trkpt><trkpt lat="45.6875839" lon="9.5692097"><ele>230.28571428571425</ele><time>2026-03-23T20:52:12.521Z</time></trkpt><trkpt lat="45.6875828" lon="9.5691085"><ele>230.57142857142856</ele><time>2026-03-23T20:52:16.586Z</time></trkpt><trkpt lat="45.6875935" lon="9.569003"><ele>230.85714285714286</ele><time>2026-03-23T20:52:21.588Z</time></trkpt><trkpt lat="45.6875755" lon="9.5689088"><ele>231.14285714285714</ele><time>2026-03-23T20:52:26.585Z</time></trkpt><trkpt lat="45.6876064" lon="9.568816"><ele>231.42857142857144</ele><time>2026-03-23T20:52:31.585Z</time></trkpt><trkpt lat="45.6876582" lon="9.5687545"><ele>231.71428571428575</ele><time>2026-03-23T20:52:36.584Z</time></trkpt><trkpt lat="45.6877139" lon="9.5687096"><ele>232.00000000000003</ele><time>2026-03-23T20:52:41.588Z</time></trkpt><trkpt lat="45.6877684" lon="9.5686521"><ele>232.00000000000003</ele><time>2026-03-23T20:52:46.584Z</time></trkpt><trkpt lat="45.6878246" lon="9.5685857"><ele>232.0</ele><time>2026-03-23T20:52:52.58Z</time></trkpt><trkpt lat="45.6878659" lon="9.5685141"><ele>232.00000000000003</ele><time>2026-03-23T20:52:57.582Z</time></trkpt><trkpt lat="45.6879161" lon="9.5684533"><ele>232.00000000000003</ele><time>2026-03-23T20:53:02.581Z</time></trkpt><trkpt lat="45.6879733" lon="9.5684096"><ele>232.0</ele><time>2026-03-23T20:53:07.588Z</time></trkpt><trkpt lat="45.6880418" lon="9.5683623"><ele>232.00000000000003</ele><time>2026-03-23T20:53:13.582Z</time></trkpt><trkpt lat="45.6881085" lon="9.568322"><ele>232.00000000000003</ele><time>2026-03-23T20:53:19.587Z</time></trkpt><trkpt lat="45.6881682" lon="9.5682825"><ele>232.00000000000003</ele><time>2026-03-23T20:53:25.585Z</time></trkpt><trkpt lat="45.6882303" lon="9.5682355"><ele>232.0</ele><time>2026-03-23T20:53:30.584Z</time></trkpt><trkpt lat="45.6882876" lon="9.5681862"><ele>232.00000000000003</ele><time>2026-03-23T20:53:35.587Z</time></trkpt><trkpt lat="45.6883468" lon="9.5681344"><ele>232.00000000000003</ele><time>2026-03-23T20:53:40.591Z</time></trkpt><trkpt lat="45.688402" lon="9.5680692"><ele>232.0</ele><time>2026-03-23T20:53:45.583Z</time></trkpt><trkpt lat="45.6884192" lon="9.567967"><ele>232.00000000000003</ele><time>2026-03-23T20:53:51.584Z</time></trkpt><trkpt lat="45.6884283" lon="9.5678673"><ele>232.00000000000003</ele><time>2026-03-23T20:53:56.587Z</time></trkpt><trkpt lat="45.688449" lon="9.5677669"><ele>234.0</ele><time>2026-03-23T20:54:02.582Z</time></trkpt><trkpt lat="45.6884721" lon="9.5676748"><ele>234.0</ele><time>2026-03-23T20:54:07.591Z</time></trkpt><trkpt lat="45.6884766" lon="9.5675819"><ele>234.0</ele><time>2026-03-23T20:54:13.577Z</time></trkpt><trkpt lat="45.6884553" lon="9.5674842"><ele>234.0</ele><time>2026-03-23T20:54:19.581Z</time></trkpt></trkseg></trk></gpx>